sensor_id;sensor_type;location;lat;lon;timestamp;P1;durP1;ratioP1;P2;durP2;ratioP2
11960;SDS011;6040;49.358;11.140;2023-02-01T00:00:28;6.10;;;4.07;;
11960;SDS011;6040;49.358;11.140;2023-02-01T00:02:55;6.73;;;4.67;;
11960;SDS011;6040;49.358;11.140;2023-02-01T00:05:22;6.93;;;4.53;;
11960;SDS011;6040;49.358;11.140;2023-02-01T00:07:48;6.93;;;5.10;;
11960;SDS011;6040;49.358;11.140;2023-02-01T00:10:15;5.97;;;4.63;;
11960;SDS011;6040;49.358;11.140;2023-02-01T00:12:42;6.90;;;4.60;;
11960;SDS011;6040;49.358;11.140;2023-02-01T00:15:11;7.20;;;4.50;;
11960;SDS011;6040;49.358;11.140;2023-02-01T00:17:38;7.03;;;4.70;;
11960;SDS011;6040;49.358;11.140;2023-02-01T00:20:05;6.73;;;4.63;;
11960;SDS011;6040;49.358;11.140;2023-02-01T00:22:33;7.60;;;5.20;;
11960;SDS011;6040;49.358;11.140;2023-02-01T00:25:00;6.07;;;4.40;;
11960;SDS011;6040;49.358;11.140;2023-02-01T00:27:27;5.93;;;4.77;;
11960;SDS011;6040;49.358;11.140;2023-02-01T00:29:54;8.40;;;5.10;;
11960;SDS011;6040;49.358;11.140;2023-02-01T00:32:22;7.67;;;4.93;;
11960;SDS011;6040;49.358;11.140;2023-02-01T00:34:49;6.73;;;4.43;;
11960;SDS011;6040;49.358;11.140;2023-02-01T00:37:16;6.97;;;4.50;;
11960;SDS011;6040;49.358;11.140;2023-02-01T00:39:42;7.80;;;4.80;;
11960;SDS011;6040;49.358;11.140;2023-02-01T00:42:09;7.30;;;4.27;;
11960;SDS011;6040;49.358;11.140;2023-02-01T00:44:36;6.00;;;4.90;;
11960;SDS011;6040;49.358;11.140;2023-02-01T00:47:03;8.80;;;5.87;;
11960;SDS011;6040;49.358;11.140;2023-02-01T00:49:31;5.97;;;4.90;;
11960;SDS011;6040;49.358;11.140;2023-02-01T00:51:58;7.03;;;4.53;;
11960;SDS011;6040;49.358;11.140;2023-02-01T00:54:25;6.27;;;4.87;;
11960;SDS011;6040;49.358;11.140;2023-02-01T00:56:51;8.80;;;5.30;;
11960;SDS011;6040;49.358;11.140;2023-02-01T00:59:18;5.50;;;4.67;;
11960;SDS011;6040;49.358;11.140;2023-02-01T01:01:45;7.13;;;4.80;;
11960;SDS011;6040;49.358;11.140;2023-02-01T01:04:12;8.57;;;5.10;;
11960;SDS011;6040;49.358;11.140;2023-02-01T01:06:40;5.57;;;4.50;;
11960;SDS011;6040;49.358;11.140;2023-02-01T01:09:07;7.70;;;5.20;;
11960;SDS011;6040;49.358;11.140;2023-02-01T01:11:35;5.23;;;4.53;;
11960;SDS011;6040;49.358;11.140;2023-02-01T01:14:03;6.43;;;5.27;;
11960;SDS011;6040;49.358;11.140;2023-02-01T01:16:32;5.43;;;4.77;;
11960;SDS011;6040;49.358;11.140;2023-02-01T01:19:00;6.77;;;4.80;;
11960;SDS011;6040;49.358;11.140;2023-02-01T01:21:27;5.40;;;4.63;;
11960;SDS011;6040;49.358;11.140;2023-02-01T01:23:56;6.83;;;5.00;;
11960;SDS011;6040;49.358;11.140;2023-02-01T01:26:23;6.77;;;4.43;;
11960;SDS011;6040;49.358;11.140;2023-02-01T01:28:51;5.53;;;4.73;;
11960;SDS011;6040;49.358;11.140;2023-02-01T01:31:20;5.13;;;4.63;;
11960;SDS011;6040;49.358;11.140;2023-02-01T01:33:47;6.00;;;4.60;;
11960;SDS011;6040;49.358;11.140;2023-02-01T01:36:15;6.10;;;4.83;;
11960;SDS011;6040;49.358;11.140;2023-02-01T01:38:42;6.70;;;4.90;;
11960;SDS011;6040;49.358;11.140;2023-02-01T01:41:12;7.23;;;4.80;;
11960;SDS011;6040;49.358;11.140;2023-02-01T01:43:46;6.03;;;4.47;;
11960;SDS011;6040;49.358;11.140;2023-02-01T01:46:15;6.33;;;4.40;;
11960;SDS011;6040;49.358;11.140;2023-02-01T01:48:44;4.83;;;4.10;;
11960;SDS011;6040;49.358;11.140;2023-02-01T01:51:12;6.53;;;4.33;;
11960;SDS011;6040;49.358;11.140;2023-02-01T01:53:43;6.30;;;4.07;;
11960;SDS011;6040;49.358;11.140;2023-02-01T01:56:21;9.17;;;4.40;;
11960;SDS011;6040;49.358;11.140;2023-02-01T01:58:48;5.40;;;4.37;;
11960;SDS011;6040;49.358;11.140;2023-02-01T02:01:15;3.87;;;3.40;;
11960;SDS011;6040;49.358;11.140;2023-02-01T02:03:43;4.60;;;3.90;;
11960;SDS011;6040;49.358;11.140;2023-02-01T02:06:16;4.53;;;3.87;;
11960;SDS011;6040;49.358;11.140;2023-02-01T02:08:48;6.27;;;4.07;;
11960;SDS011;6040;49.358;11.140;2023-02-01T02:11:16;6.07;;;4.13;;
11960;SDS011;6040;49.358;11.140;2023-02-01T02:13:46;5.17;;;3.80;;
11960;SDS011;6040;49.358;11.140;2023-02-01T02:19:40;6.00;;;4.20;;
11960;SDS011;6040;49.358;11.140;2023-02-01T02:25:47;4.50;;;3.70;;
11960;SDS011;6040;49.358;11.140;2023-02-01T02:28:51;4.57;;;3.37;;
11960;SDS011;6040;49.358;11.140;2023-02-01T02:31:59;3.87;;;3.47;;
11960;SDS011;6040;49.358;11.140;2023-02-01T02:34:41;4.57;;;3.50;;
11960;SDS011;6040;49.358;11.140;2023-02-01T02:37:14;4.93;;;3.70;;
11960;SDS011;6040;49.358;11.140;2023-02-01T02:39:51;4.93;;;3.70;;
11960;SDS011;6040;49.358;11.140;2023-02-01T02:42:26;6.57;;;4.30;;
11960;SDS011;6040;49.358;11.140;2023-02-01T02:45:17;4.37;;;3.83;;
11960;SDS011;6040;49.358;11.140;2023-02-01T02:48:07;5.80;;;4.23;;
11960;SDS011;6040;49.358;11.140;2023-02-01T02:50:42;5.13;;;3.70;;
11960;SDS011;6040;49.358;11.140;2023-02-01T02:53:31;4.37;;;3.80;;
11960;SDS011;6040;49.358;11.140;2023-02-01T02:56:33;8.00;;;4.27;;
11960;SDS011;6040;49.358;11.140;2023-02-01T02:59:21;5.03;;;4.30;;
11960;SDS011;6040;49.358;11.140;2023-02-01T03:02:08;5.33;;;4.17;;
11960;SDS011;6040;49.358;11.140;2023-02-01T03:04:54;5.13;;;4.33;;
11960;SDS011;6040;49.358;11.140;2023-02-01T03:10:24;8.00;;;4.63;;
11960;SDS011;6040;49.358;11.140;2023-02-01T03:12:59;7.30;;;5.03;;
11960;SDS011;6040;49.358;11.140;2023-02-01T03:15:32;5.20;;;4.70;;
11960;SDS011;6040;49.358;11.140;2023-02-01T03:18:10;8.13;;;4.77;;
11960;SDS011;6040;49.358;11.140;2023-02-01T03:20:43;6.23;;;4.60;;
11960;SDS011;6040;49.358;11.140;2023-02-01T03:23:14;8.70;;;4.63;;
11960;SDS011;6040;49.358;11.140;2023-02-01T03:25:43;7.70;;;5.13;;
11960;SDS011;6040;49.358;11.140;2023-02-01T03:28:10;6.67;;;5.00;;
11960;SDS011;6040;49.358;11.140;2023-02-01T03:30:38;6.60;;;5.67;;
11960;SDS011;6040;49.358;11.140;2023-02-01T03:33:08;7.47;;;5.23;;
11960;SDS011;6040;49.358;11.140;2023-02-01T03:35:47;6.80;;;5.20;;
11960;SDS011;6040;49.358;11.140;2023-02-01T03:38:22;6.97;;;5.77;;
11960;SDS011;6040;49.358;11.140;2023-02-01T03:40:52;7.23;;;5.70;;
11960;SDS011;6040;49.358;11.140;2023-02-01T03:43:23;7.53;;;5.70;;
11960;SDS011;6040;49.358;11.140;2023-02-01T03:45:54;10.50;;;6.47;;
11960;SDS011;6040;49.358;11.140;2023-02-01T03:48:26;8.30;;;6.40;;
11960;SDS011;6040;49.358;11.140;2023-02-01T03:50:56;7.27;;;5.87;;
11960;SDS011;6040;49.358;11.140;2023-02-01T03:53:27;7.60;;;5.10;;
11960;SDS011;6040;49.358;11.140;2023-02-01T03:55:55;9.20;;;5.63;;
11960;SDS011;6040;49.358;11.140;2023-02-01T03:58:23;9.07;;;6.00;;
11960;SDS011;6040;49.358;11.140;2023-02-01T04:00:51;7.33;;;5.93;;
11960;SDS011;6040;49.358;11.140;2023-02-01T04:03:19;8.37;;;5.90;;
11960;SDS011;6040;49.358;11.140;2023-02-01T04:05:47;8.80;;;6.03;;
11960;SDS011;6040;49.358;11.140;2023-02-01T04:08:14;9.43;;;5.60;;
11960;SDS011;6040;49.358;11.140;2023-02-01T04:10:42;8.33;;;5.93;;
11960;SDS011;6040;49.358;11.140;2023-02-01T04:13:10;6.87;;;5.60;;
11960;SDS011;6040;49.358;11.140;2023-02-01T04:15:37;6.83;;;5.77;;
11960;SDS011;6040;49.358;11.140;2023-02-01T04:18:04;8.13;;;6.00;;
11960;SDS011;6040;49.358;11.140;2023-02-01T04:20:31;8.23;;;5.70;;
11960;SDS011;6040;49.358;11.140;2023-02-01T04:22:58;7.27;;;5.93;;
11960;SDS011;6040;49.358;11.140;2023-02-01T04:25:27;6.73;;;6.00;;
11960;SDS011;6040;49.358;11.140;2023-02-01T04:27:55;6.93;;;5.53;;
11960;SDS011;6040;49.358;11.140;2023-02-01T04:30:22;9.13;;;5.40;;
11960;SDS011;6040;49.358;11.140;2023-02-01T04:32:49;7.70;;;5.40;;
11960;SDS011;6040;49.358;11.140;2023-02-01T04:35:16;7.07;;;5.60;;
11960;SDS011;6040;49.358;11.140;2023-02-01T04:37:43;7.10;;;5.03;;
11960;SDS011;6040;49.358;11.140;2023-02-01T04:40:10;7.67;;;5.50;;
11960;SDS011;6040;49.358;11.140;2023-02-01T04:42:38;6.63;;;5.10;;
11960;SDS011;6040;49.358;11.140;2023-02-01T04:45:07;8.03;;;5.40;;
11960;SDS011;6040;49.358;11.140;2023-02-01T04:47:34;8.33;;;5.07;;
11960;SDS011;6040;49.358;11.140;2023-02-01T04:50:01;6.63;;;5.30;;
11960;SDS011;6040;49.358;11.140;2023-02-01T04:52:28;5.00;;;4.50;;
11960;SDS011;6040;49.358;11.140;2023-02-01T04:54:54;7.17;;;5.00;;
11960;SDS011;6040;49.358;11.140;2023-02-01T04:57:22;6.80;;;4.57;;
11960;SDS011;6040;49.358;11.140;2023-02-01T04:59:49;8.00;;;5.20;;
11960;SDS011;6040;49.358;11.140;2023-02-01T05:02:17;6.10;;;5.20;;
11960;SDS011;6040;49.358;11.140;2023-02-01T05:04:44;7.93;;;5.10;;
11960;SDS011;6040;49.358;11.140;2023-02-01T05:07:11;7.20;;;5.10;;
11960;SDS011;6040;49.358;11.140;2023-02-01T05:09:38;6.43;;;4.97;;
11960;SDS011;6040;49.358;11.140;2023-02-01T05:12:05;6.50;;;4.40;;
11960;SDS011;6040;49.358;11.140;2023-02-01T05:14:49;6.17;;;5.00;;
11960;SDS011;6040;49.358;11.140;2023-02-01T05:17:17;7.77;;;5.30;;
11960;SDS011;6040;49.358;11.140;2023-02-01T05:19:44;7.63;;;4.53;;
11960;SDS011;6040;49.358;11.140;2023-02-01T05:22:11;8.63;;;5.27;;
11960;SDS011;6040;49.358;11.140;2023-02-01T05:24:38;6.93;;;4.77;;
11960;SDS011;6040;49.358;11.140;2023-02-01T05:27:05;7.60;;;4.80;;
11960;SDS011;6040;49.358;11.140;2023-02-01T05:29:31;5.73;;;4.83;;
11960;SDS011;6040;49.358;11.140;2023-02-01T05:31:58;8.27;;;4.83;;
11960;SDS011;6040;49.358;11.140;2023-02-01T05:34:26;7.53;;;5.13;;
11960;SDS011;6040;49.358;11.140;2023-02-01T05:36:53;7.77;;;4.73;;
11960;SDS011;6040;49.358;11.140;2023-02-01T05:39:20;6.40;;;4.57;;
11960;SDS011;6040;49.358;11.140;2023-02-01T05:41:47;7.80;;;5.13;;
11960;SDS011;6040;49.358;11.140;2023-02-01T05:44:14;9.97;;;5.23;;
11960;SDS011;6040;49.358;11.140;2023-02-01T05:46:41;7.27;;;4.90;;
11960;SDS011;6040;49.358;11.140;2023-02-01T05:49:08;6.07;;;4.50;;
11960;SDS011;6040;49.358;11.140;2023-02-01T05:51:36;8.77;;;5.33;;
11960;SDS011;6040;49.358;11.140;2023-02-01T05:54:03;8.10;;;4.80;;
11960;SDS011;6040;49.358;11.140;2023-02-01T05:56:29;6.73;;;5.27;;
11960;SDS011;6040;49.358;11.140;2023-02-01T05:58:56;7.97;;;5.20;;
11960;SDS011;6040;49.358;11.140;2023-02-01T06:01:23;6.30;;;5.10;;
11960;SDS011;6040;49.358;11.140;2023-02-01T06:03:50;7.27;;;5.63;;
11960;SDS011;6040;49.358;11.140;2023-02-01T06:06:52;8.33;;;5.73;;
11960;SDS011;6040;49.358;11.140;2023-02-01T06:09:19;6.87;;;5.77;;
11960;SDS011;6040;49.358;11.140;2023-02-01T06:11:46;5.80;;;4.93;;
11960;SDS011;6040;49.358;11.140;2023-02-01T06:14:12;6.97;;;5.33;;
11960;SDS011;6040;49.358;11.140;2023-02-01T06:16:39;7.07;;;5.20;;
11960;SDS011;6040;49.358;11.140;2023-02-01T06:19:10;7.93;;;5.10;;
11960;SDS011;6040;49.358;11.140;2023-02-01T06:21:37;6.70;;;5.10;;
11960;SDS011;6040;49.358;11.140;2023-02-01T06:24:05;6.70;;;5.23;;
11960;SDS011;6040;49.358;11.140;2023-02-01T06:26:32;7.03;;;5.67;;
11960;SDS011;6040;49.358;11.140;2023-02-01T06:28:59;7.80;;;5.87;;
11960;SDS011;6040;49.358;11.140;2023-02-01T06:31:26;6.87;;;5.20;;
11960;SDS011;6040;49.358;11.140;2023-02-01T06:33:53;8.33;;;4.93;;
11960;SDS011;6040;49.358;11.140;2023-02-01T06:36:20;6.13;;;4.90;;
11960;SDS011;6040;49.358;11.140;2023-02-01T06:38:47;5.77;;;4.63;;
11960;SDS011;6040;49.358;11.140;2023-02-01T06:41:15;8.67;;;4.33;;
11960;SDS011;6040;49.358;11.140;2023-02-01T06:43:42;5.47;;;4.57;;
11960;SDS011;6040;49.358;11.140;2023-02-01T06:46:11;5.90;;;4.40;;
11960;SDS011;6040;49.358;11.140;2023-02-01T06:48:38;4.47;;;4.03;;
11960;SDS011;6040;49.358;11.140;2023-02-01T06:51:05;5.70;;;4.07;;
11960;SDS011;6040;49.358;11.140;2023-02-01T06:53:32;4.77;;;4.20;;
11960;SDS011;6040;49.358;11.140;2023-02-01T06:56:00;5.70;;;4.40;;
11960;SDS011;6040;49.358;11.140;2023-02-01T06:58:30;5.87;;;4.30;;
11960;SDS011;6040;49.358;11.140;2023-02-01T07:00:58;6.20;;;4.17;;
11960;SDS011;6040;49.358;11.140;2023-02-01T07:03:30;4.07;;;3.70;;
11960;SDS011;6040;49.358;11.140;2023-02-01T07:05:57;4.30;;;3.07;;
11960;SDS011;6040;49.358;11.140;2023-02-01T07:08:24;4.30;;;3.37;;
11960;SDS011;6040;49.358;11.140;2023-02-01T07:10:51;3.50;;;3.13;;
11960;SDS011;6040;49.358;11.140;2023-02-01T07:13:18;4.60;;;3.63;;
11960;SDS011;6040;49.358;11.140;2023-02-01T07:15:46;4.33;;;3.43;;
11960;SDS011;6040;49.358;11.140;2023-02-01T07:18:13;4.90;;;3.30;;
11960;SDS011;6040;49.358;11.140;2023-02-01T07:20:40;4.33;;;3.13;;
11960;SDS011;6040;49.358;11.140;2023-02-01T07:23:07;4.93;;;4.07;;
11960;SDS011;6040;49.358;11.140;2023-02-01T07:25:35;5.00;;;3.80;;
11960;SDS011;6040;49.358;11.140;2023-02-01T07:28:02;3.53;;;3.17;;
11960;SDS011;6040;49.358;11.140;2023-02-01T07:30:29;5.73;;;3.63;;
11960;SDS011;6040;49.358;11.140;2023-02-01T07:32:57;5.23;;;3.93;;
11960;SDS011;6040;49.358;11.140;2023-02-01T07:35:26;6.13;;;3.90;;
11960;SDS011;6040;49.358;11.140;2023-02-01T07:37:53;4.60;;;3.87;;
11960;SDS011;6040;49.358;11.140;2023-02-01T07:40:19;4.70;;;3.87;;
11960;SDS011;6040;49.358;11.140;2023-02-01T07:42:53;5.00;;;3.53;;
11960;SDS011;6040;49.358;11.140;2023-02-01T07:45:20;4.20;;;3.70;;
11960;SDS011;6040;49.358;11.140;2023-02-01T07:47:47;5.73;;;4.07;;
11960;SDS011;6040;49.358;11.140;2023-02-01T07:50:16;4.80;;;3.53;;
11960;SDS011;6040;49.358;11.140;2023-02-01T07:52:43;5.37;;;4.03;;
11960;SDS011;6040;49.358;11.140;2023-02-01T07:55:10;4.43;;;3.37;;
11960;SDS011;6040;49.358;11.140;2023-02-01T07:57:36;4.30;;;3.40;;
11960;SDS011;6040;49.358;11.140;2023-02-01T08:00:04;4.30;;;3.27;;
11960;SDS011;6040;49.358;11.140;2023-02-01T08:02:48;4.20;;;3.23;;
11960;SDS011;6040;49.358;11.140;2023-02-01T08:05:17;5.07;;;3.40;;
11960;SDS011;6040;49.358;11.140;2023-02-01T08:07:44;5.43;;;2.87;;
11960;SDS011;6040;49.358;11.140;2023-02-01T08:10:15;3.77;;;3.20;;
11960;SDS011;6040;49.358;11.140;2023-02-01T08:12:42;5.97;;;3.60;;
11960;SDS011;6040;49.358;11.140;2023-02-01T08:15:12;5.80;;;3.00;;
11960;SDS011;6040;49.358;11.140;2023-02-01T08:17:40;5.50;;;3.23;;
11960;SDS011;6040;49.358;11.140;2023-02-01T08:20:12;4.20;;;3.00;;
11960;SDS011;6040;49.358;11.140;2023-02-01T08:22:41;6.97;;;3.20;;
11960;SDS011;6040;49.358;11.140;2023-02-01T08:25:08;3.70;;;2.80;;
11960;SDS011;6040;49.358;11.140;2023-02-01T08:27:35;2.50;;;2.30;;
11960;SDS011;6040;49.358;11.140;2023-02-01T08:30:04;4.70;;;3.00;;
11960;SDS011;6040;49.358;11.140;2023-02-01T08:32:32;5.43;;;2.50;;
11960;SDS011;6040;49.358;11.140;2023-02-01T08:34:59;4.20;;;2.47;;
11960;SDS011;6040;49.358;11.140;2023-02-01T08:37:26;3.87;;;2.83;;
11960;SDS011;6040;49.358;11.140;2023-02-01T08:39:54;4.27;;;2.50;;
11960;SDS011;6040;49.358;11.140;2023-02-01T08:42:21;6.70;;;2.50;;
11960;SDS011;6040;49.358;11.140;2023-02-01T08:45:06;3.83;;;2.17;;
11960;SDS011;6040;49.358;11.140;2023-02-01T08:47:34;3.60;;;2.50;;
11960;SDS011;6040;49.358;11.140;2023-02-01T08:50:01;4.80;;;2.57;;
11960;SDS011;6040;49.358;11.140;2023-02-01T08:52:28;3.53;;;2.40;;
11960;SDS011;6040;49.358;11.140;2023-02-01T08:54:57;2.73;;;2.07;;
11960;SDS011;6040;49.358;11.140;2023-02-01T08:57:24;4.30;;;2.57;;
11960;SDS011;6040;49.358;11.140;2023-02-01T08:59:50;4.63;;;2.57;;
11960;SDS011;6040;49.358;11.140;2023-02-01T09:02:17;5.17;;;2.67;;
11960;SDS011;6040;49.358;11.140;2023-02-01T09:04:44;6.20;;;3.07;;
11960;SDS011;6040;49.358;11.140;2023-02-01T09:07:11;2.90;;;2.57;;
11960;SDS011;6040;49.358;11.140;2023-02-01T09:09:38;4.50;;;2.60;;
11960;SDS011;6040;49.358;11.140;2023-02-01T09:12:06;7.17;;;2.90;;
11960;SDS011;6040;49.358;11.140;2023-02-01T09:14:33;3.27;;;2.60;;
11960;SDS011;6040;49.358;11.140;2023-02-01T09:17:00;3.93;;;2.77;;
11960;SDS011;6040;49.358;11.140;2023-02-01T09:19:27;3.80;;;2.83;;
11960;SDS011;6040;49.358;11.140;2023-02-01T09:21:54;4.23;;;3.37;;
11960;SDS011;6040;49.358;11.140;2023-02-01T09:24:21;7.07;;;3.30;;
11960;SDS011;6040;49.358;11.140;2023-02-01T09:26:48;7.53;;;3.03;;
11960;SDS011;6040;49.358;11.140;2023-02-01T09:29:16;5.33;;;3.30;;
11960;SDS011;6040;49.358;11.140;2023-02-01T09:31:43;7.57;;;3.83;;
11960;SDS011;6040;49.358;11.140;2023-02-01T09:34:10;5.30;;;3.77;;
11960;SDS011;6040;49.358;11.140;2023-02-01T09:36:37;6.73;;;3.80;;
11960;SDS011;6040;49.358;11.140;2023-02-01T09:39:04;5.60;;;4.20;;
11960;SDS011;6040;49.358;11.140;2023-02-01T09:41:33;6.40;;;4.30;;
11960;SDS011;6040;49.358;11.140;2023-02-01T09:44:10;6.60;;;3.80;;
11960;SDS011;6040;49.358;11.140;2023-02-01T09:46:47;7.93;;;4.60;;
11960;SDS011;6040;49.358;11.140;2023-02-01T09:49:17;8.70;;;4.07;;
11960;SDS011;6040;49.358;11.140;2023-02-01T09:51:48;8.07;;;4.10;;
11960;SDS011;6040;49.358;11.140;2023-02-01T09:54:17;5.83;;;2.30;;
11960;SDS011;6040;49.358;11.140;2023-02-01T09:56:46;2.83;;;2.00;;
11960;SDS011;6040;49.358;11.140;2023-02-01T09:59:20;3.47;;;1.63;;
11960;SDS011;6040;49.358;11.140;2023-02-01T10:01:55;5.60;;;2.07;;
11960;SDS011;6040;49.358;11.140;2023-02-01T10:04:24;5.43;;;2.03;;
11960;SDS011;6040;49.358;11.140;2023-02-01T10:06:57;3.50;;;1.97;;
11960;SDS011;6040;49.358;11.140;2023-02-01T10:09:42;3.73;;;2.33;;
11960;SDS011;6040;49.358;11.140;2023-02-01T10:12:23;6.63;;;3.40;;
11960;SDS011;6040;49.358;11.140;2023-02-01T10:15:09;5.90;;;3.17;;
11960;SDS011;6040;49.358;11.140;2023-02-01T10:17:53;5.13;;;3.40;;
11960;SDS011;6040;49.358;11.140;2023-02-01T10:20:43;7.50;;;3.70;;
11960;SDS011;6040;49.358;11.140;2023-02-01T10:23:28;7.60;;;3.43;;
11960;SDS011;6040;49.358;11.140;2023-02-01T10:26:08;7.50;;;3.27;;
11960;SDS011;6040;49.358;11.140;2023-02-01T10:28:43;7.77;;;3.33;;
11960;SDS011;6040;49.358;11.140;2023-02-01T10:31:13;9.77;;;3.33;;
11960;SDS011;6040;49.358;11.140;2023-02-01T10:33:42;8.33;;;3.50;;
11960;SDS011;6040;49.358;11.140;2023-02-01T10:36:13;7.27;;;3.00;;
11960;SDS011;6040;49.358;11.140;2023-02-01T10:38:45;7.00;;;2.70;;
11960;SDS011;6040;49.358;11.140;2023-02-01T10:41:14;8.53;;;2.87;;
11960;SDS011;6040;49.358;11.140;2023-02-01T10:43:43;9.27;;;2.87;;
11960;SDS011;6040;49.358;11.140;2023-02-01T10:46:17;6.97;;;3.10;;
11960;SDS011;6040;49.358;11.140;2023-02-01T10:48:45;8.83;;;2.87;;
11960;SDS011;6040;49.358;11.140;2023-02-01T10:51:14;8.37;;;3.20;;
11960;SDS011;6040;49.358;11.140;2023-02-01T10:53:47;7.53;;;3.20;;
11960;SDS011;6040;49.358;11.140;2023-02-01T10:56:21;8.13;;;2.83;;
11960;SDS011;6040;49.358;11.140;2023-02-01T10:58:52;7.23;;;2.53;;
11960;SDS011;6040;49.358;11.140;2023-02-01T11:01:29;5.70;;;2.53;;
11960;SDS011;6040;49.358;11.140;2023-02-01T11:04:00;6.40;;;2.90;;
11960;SDS011;6040;49.358;11.140;2023-02-01T11:06:28;8.47;;;3.00;;
11960;SDS011;6040;49.358;11.140;2023-02-01T11:08:57;5.73;;;2.57;;
11960;SDS011;6040;49.358;11.140;2023-02-01T11:11:27;9.67;;;2.97;;
11960;SDS011;6040;49.358;11.140;2023-02-01T11:13:55;7.47;;;2.80;;
11960;SDS011;6040;49.358;11.140;2023-02-01T11:16:30;7.27;;;2.63;;
11960;SDS011;6040;49.358;11.140;2023-02-01T11:18:59;8.60;;;2.40;;
11960;SDS011;6040;49.358;11.140;2023-02-01T11:21:27;7.30;;;2.20;;
11960;SDS011;6040;49.358;11.140;2023-02-01T11:23:59;4.37;;;2.33;;
11960;SDS011;6040;49.358;11.140;2023-02-01T11:26:28;7.30;;;2.20;;
11960;SDS011;6040;49.358;11.140;2023-02-01T11:28:58;4.90;;;2.20;;
11960;SDS011;6040;49.358;11.140;2023-02-01T11:31:29;6.47;;;2.40;;
11960;SDS011;6040;49.358;11.140;2023-02-01T11:33:59;5.17;;;2.20;;
11960;SDS011;6040;49.358;11.140;2023-02-01T11:36:37;6.13;;;2.53;;
11960;SDS011;6040;49.358;11.140;2023-02-01T11:39:12;6.67;;;2.03;;
11960;SDS011;6040;49.358;11.140;2023-02-01T11:41:55;7.83;;;2.23;;
11960;SDS011;6040;49.358;11.140;2023-02-01T11:44:29;6.77;;;2.27;;
11960;SDS011;6040;49.358;11.140;2023-02-01T11:49:50;9.53;;;2.47;;
11960;SDS011;6040;49.358;11.140;2023-02-01T11:52:20;7.07;;;2.13;;
11960;SDS011;6040;49.358;11.140;2023-02-01T11:55:01;11.50;;;2.20;;
11960;SDS011;6040;49.358;11.140;2023-02-01T11:57:48;6.13;;;2.73;;
11960;SDS011;6040;49.358;11.140;2023-02-01T12:00:29;8.07;;;2.43;;
11960;SDS011;6040;49.358;11.140;2023-02-01T12:06:24;4.93;;;2.43;;
11960;SDS011;6040;49.358;11.140;2023-02-01T12:09:01;14.20;;;2.87;;
11960;SDS011;6040;49.358;11.140;2023-02-01T12:11:53;6.37;;;2.10;;
11960;SDS011;6040;49.358;11.140;2023-02-01T12:14:31;6.73;;;2.60;;
11960;SDS011;6040;49.358;11.140;2023-02-01T12:17:21;7.53;;;2.10;;
11960;SDS011;6040;49.358;11.140;2023-02-01T12:20:04;6.00;;;2.20;;
11960;SDS011;6040;49.358;11.140;2023-02-01T12:22:50;9.63;;;2.30;;
11960;SDS011;6040;49.358;11.140;2023-02-01T12:25:30;4.63;;;2.23;;
11960;SDS011;6040;49.358;11.140;2023-02-01T12:28:19;10.40;;;2.97;;
11960;SDS011;6040;49.358;11.140;2023-02-01T12:31:10;10.97;;;2.50;;
11960;SDS011;6040;49.358;11.140;2023-02-01T12:33:56;7.43;;;2.57;;
11960;SDS011;6040;49.358;11.140;2023-02-01T12:36:40;8.87;;;2.57;;
11960;SDS011;6040;49.358;11.140;2023-02-01T12:39:18;4.60;;;2.47;;
11960;SDS011;6040;49.358;11.140;2023-02-01T12:41:51;6.73;;;2.77;;
11960;SDS011;6040;49.358;11.140;2023-02-01T12:44:35;4.83;;;2.43;;
11960;SDS011;6040;49.358;11.140;2023-02-01T12:47:10;10.00;;;2.43;;
11960;SDS011;6040;49.358;11.140;2023-02-01T12:49:44;5.30;;;2.30;;
11960;SDS011;6040;49.358;11.140;2023-02-01T12:52:17;5.90;;;1.80;;
11960;SDS011;6040;49.358;11.140;2023-02-01T12:54:53;7.43;;;2.10;;
11960;SDS011;6040;49.358;11.140;2023-02-01T12:57:25;7.73;;;2.47;;
11960;SDS011;6040;49.358;11.140;2023-02-01T12:59:56;7.90;;;2.63;;
11960;SDS011;6040;49.358;11.140;2023-02-01T13:02:30;4.43;;;2.13;;
11960;SDS011;6040;49.358;11.140;2023-02-01T13:05:05;4.90;;;2.10;;
11960;SDS011;6040;49.358;11.140;2023-02-01T13:07:41;4.37;;;2.00;;
11960;SDS011;6040;49.358;11.140;2023-02-01T13:10:15;8.00;;;2.60;;
11960;SDS011;6040;49.358;11.140;2023-02-01T13:12:45;5.73;;;2.30;;
11960;SDS011;6040;49.358;11.140;2023-02-01T13:15:19;6.67;;;2.23;;
11960;SDS011;6040;49.358;11.140;2023-02-01T13:17:49;7.03;;;2.73;;
11960;SDS011;6040;49.358;11.140;2023-02-01T13:20:20;7.77;;;2.60;;
11960;SDS011;6040;49.358;11.140;2023-02-01T13:22:50;8.03;;;2.57;;
11960;SDS011;6040;49.358;11.140;2023-02-01T13:25:24;5.97;;;2.60;;
11960;SDS011;6040;49.358;11.140;2023-02-01T13:27:58;6.30;;;2.93;;
11960;SDS011;6040;49.358;11.140;2023-02-01T13:30:29;10.40;;;2.77;;
11960;SDS011;6040;49.358;11.140;2023-02-01T13:33:17;7.60;;;2.70;;
11960;SDS011;6040;49.358;11.140;2023-02-01T13:41:57;8.20;;;2.60;;
11960;SDS011;6040;49.358;11.140;2023-02-01T13:44:28;7.97;;;2.60;;
11960;SDS011;6040;49.358;11.140;2023-02-01T13:46:58;5.60;;;2.37;;
11960;SDS011;6040;49.358;11.140;2023-02-01T13:49:29;7.63;;;2.30;;
11960;SDS011;6040;49.358;11.140;2023-02-01T13:52:03;5.37;;;2.60;;
11960;SDS011;6040;49.358;11.140;2023-02-01T13:54:31;6.90;;;2.20;;
11960;SDS011;6040;49.358;11.140;2023-02-01T13:57:01;9.33;;;2.30;;
11960;SDS011;6040;49.358;11.140;2023-02-01T13:59:36;6.43;;;2.50;;
11960;SDS011;6040;49.358;11.140;2023-02-01T14:08:42;8.00;;;3.33;;
11960;SDS011;6040;49.358;11.140;2023-02-01T14:11:35;9.40;;;3.00;;
11960;SDS011;6040;49.358;11.140;2023-02-01T14:23:23;10.23;;;2.90;;
11960;SDS011;6040;49.358;11.140;2023-02-01T14:28:38;7.40;;;2.40;;
11960;SDS011;6040;49.358;11.140;2023-02-01T14:31:17;7.33;;;2.73;;
11960;SDS011;6040;49.358;11.140;2023-02-01T14:34:18;9.47;;;2.87;;
11960;SDS011;6040;49.358;11.140;2023-02-01T14:36:54;10.43;;;2.90;;
11960;SDS011;6040;49.358;11.140;2023-02-01T14:39:28;9.93;;;2.80;;
11960;SDS011;6040;49.358;11.140;2023-02-01T14:42:19;7.57;;;2.47;;
11960;SDS011;6040;49.358;11.140;2023-02-01T14:44:48;7.87;;;2.70;;
11960;SDS011;6040;49.358;11.140;2023-02-01T14:50:02;10.60;;;2.57;;
11960;SDS011;6040;49.358;11.140;2023-02-01T14:52:45;7.60;;;2.43;;
11960;SDS011;6040;49.358;11.140;2023-02-01T14:55:14;7.73;;;2.37;;
11960;SDS011;6040;49.358;11.140;2023-02-01T14:57:45;7.47;;;2.60;;
11960;SDS011;6040;49.358;11.140;2023-02-01T15:00:20;9.03;;;2.63;;
11960;SDS011;6040;49.358;11.140;2023-02-01T15:02:50;6.63;;;2.43;;
11960;SDS011;6040;49.358;11.140;2023-02-01T15:05:24;7.47;;;2.60;;
11960;SDS011;6040;49.358;11.140;2023-02-01T15:07:56;10.20;;;2.83;;
11960;SDS011;6040;49.358;11.140;2023-02-01T15:10:26;7.53;;;3.27;;
11960;SDS011;6040;49.358;11.140;2023-02-01T15:12:56;9.13;;;2.87;;
11960;SDS011;6040;49.358;11.140;2023-02-01T15:15:24;5.27;;;2.40;;
11960;SDS011;6040;49.358;11.140;2023-02-01T15:17:52;9.73;;;3.10;;
11960;SDS011;6040;49.358;11.140;2023-02-01T15:20:21;9.77;;;2.70;;
11960;SDS011;6040;49.358;11.140;2023-02-01T15:22:55;9.20;;;2.87;;
11960;SDS011;6040;49.358;11.140;2023-02-01T15:25:24;9.90;;;2.57;;
11960;SDS011;6040;49.358;11.140;2023-02-01T15:27:52;9.47;;;2.80;;
11960;SDS011;6040;49.358;11.140;2023-02-01T15:30:20;11.87;;;2.67;;
11960;SDS011;6040;49.358;11.140;2023-02-01T15:32:48;7.60;;;2.50;;
11960;SDS011;6040;49.358;11.140;2023-02-01T15:35:33;8.10;;;3.27;;
11960;SDS011;6040;49.358;11.140;2023-02-01T15:38:18;11.63;;;3.07;;
11960;SDS011;6040;49.358;11.140;2023-02-01T15:40:53;12.20;;;3.13;;
11960;SDS011;6040;49.358;11.140;2023-02-01T15:43:21;10.47;;;3.43;;
11960;SDS011;6040;49.358;11.140;2023-02-01T15:45:48;5.77;;;2.50;;
11960;SDS011;6040;49.358;11.140;2023-02-01T15:48:21;8.77;;;2.40;;
11960;SDS011;6040;49.358;11.140;2023-02-01T15:50:52;7.77;;;2.30;;
11960;SDS011;6040;49.358;11.140;2023-02-01T15:53:21;9.20;;;2.67;;
11960;SDS011;6040;49.358;11.140;2023-02-01T15:55:55;7.90;;;2.50;;